Time;durP1;ratioP1;P1;durP2;ratioP2;P2;SDS_P1;SDS_P2;PMS_P1;PMS_P2;Temp;Humidity;BMP_temperature;BMP_pressure;BME280_temperature;BME280_humidity;BME280_pressure;Samples;Min_cycle;Max_cycle;Signal;HPM_P1;HPM_P2
2022/12/14 00:00:46;;;;;;;20.27;13.50;;;0.00;99.90;;;;;;5073540;28;20182;-63
2022/12/14 00:03:12;;;;;;;22.20;14.77;;;0.00;99.90;;;;;;5073477;28;20175;-63
2022/12/14 00:05:37;;;;;;;19.00;13.77;;;0.00;99.90;;;;;;5073286;28;20209;-63
2022/12/14 00:08:04;;;;;;;22.20;14.07;;;-0.20;99.90;;;;;;5073291;28;20579;-63
2022/12/14 00:10:31;;;;;;;18.70;13.40;;;-0.20;99.90;;;;;;5073495;28;20174;-63
2022/12/14 00:12:57;;;;;;;19.97;13.50;;;-0.20;99.90;;;;;;5073440;28;20206;-64
2022/12/14 00:15:23;;;;;;;23.37;13.83;;;-0.10;99.90;;;;;;5073215;28;20241;-62
2022/12/14 00:17:48;;;;;;;20.50;14.07;;;-0.10;99.90;;;;;;5073228;28;20171;-63
2022/12/14 00:20:14;;;;;;;21.43;13.80;;;-0.10;99.90;;;;;;5073200;28;20179;-61
2022/12/14 00:22:40;;;;;;;22.50;14.80;;;-0.20;99.90;;;;;;5073103;28;20178;-61
2022/12/14 00:25:06;;;;;;;19.87;14.10;;;-0.10;99.90;;;;;;5072982;28;20183;-64
2022/12/14 00:27:31;;;;;;;22.33;14.93;;;0.00;99.90;;;;;;5073328;28;20695;-64
2022/12/14 00:29:57;;;;;;;22.50;15.33;;;0.00;99.90;;;;;;5072091;28;20271;-63
2022/12/14 00:32:23;;;;;;;26.37;16.37;;;0.10;99.90;;;;;;5073517;28;20175;-62
2022/12/14 00:34:49;;;;;;;26.60;17.60;;;0.10;99.90;;;;;;5072985;28;20175;-64
2022/12/14 00:37:14;;;;;;;19.70;13.87;;;0.20;99.90;;;;;;5072964;28;20175;-62
2022/12/14 00:39:40;;;;;;;21.00;13.77;;;0.10;99.90;;;;;;5073046;28;20257;-64
2022/12/14 00:42:06;;;;;;;17.27;13.40;;;0.00;99.90;;;;;;5073218;28;20175;-64
2022/12/14 00:44:32;;;;;;;20.23;13.13;;;-0.20;99.90;;;;;;5073053;28;20567;-64
2022/12/14 00:46:58;;;;;;;20.23;13.73;;;-0.20;99.90;;;;;;5072993;28;20207;-62
2022/12/14 00:49:23;;;;;;;21.10;13.30;;;-0.10;99.90;;;;;;5071711;28;20669;-63
2022/12/14 00:51:49;;;;;;;18.50;12.43;;;-0.30;99.90;;;;;;5072817;28;20258;-63
2022/12/14 00:54:15;;;;;;;18.80;13.30;;;-0.20;99.90;;;;;;5072955;28;20213;-63
2022/12/14 00:56:40;;;;;;;23.10;13.33;;;-0.30;99.90;;;;;;5073294;28;20183;-63
2022/12/14 00:59:06;;;;;;;21.57;14.07;;;-0.20;99.90;;;;;;5072907;28;20175;-63
2022/12/14 01:01:32;;;;;;;20.53;13.00;;;-0.10;99.90;;;;;;5072900;28;20176;-63
2022/12/14 01:06:46;;;;;;;20.77;12.73;;;-0.30;99.90;;;;;;5072857;28;20721;-63
2022/12/14 01:09:12;;;;;;;21.77;12.93;;;-0.20;99.90;;;;;;5072814;28;20184;-63
2022/12/14 01:11:38;;;;;;;18.57;11.97;;;-0.30;99.90;;;;;;5072805;28;20183;-63
2022/12/14 01:14:04;;;;;;;19.90;12.83;;;-0.10;99.90;;;;;;5072658;28;20306;-63
2022/12/14 01:16:30;;;;;;;19.40;13.60;;;-0.10;99.90;;;;;;5072800;28;20180;-64
2022/12/14 01:18:58;;;;;;;27.20;18.43;;;-0.10;99.90;;;;;;5072531;28;20183;-63
2022/12/14 01:21:24;;;;;;;24.40;16.03;;;-0.10;99.90;;;;;;5072876;28;20185;-64
2022/12/14 01:23:53;;;;;;;47.63;29.93;;;0.00;99.90;;;;;;5072813;28;20254;-63
2022/12/14 01:26:19;;;;;;;30.77;21.87;;;0.00;99.90;;;;;;5072562;28;20245;-63
2022/12/14 01:28:47;;;;;;;31.67;21.03;;;0.00;99.90;;;;;;5074409;28;20277;-63
2022/12/14 01:31:15;;;;;;;19.90;14.00;;;0.00;99.90;;;;;;5076187;28;20627;-62
2022/12/14 01:33:41;;;;;;;23.40;15.40;;;0.00;99.90;;;;;;5076182;28;20173;-63
2022/12/14 01:36:13;;;;;;;33.30;21.77;;;0.10;99.90;;;;;;5076419;28;20213;-63
2022/12/14 01:38:38;;;;;;;31.67;23.07;;;0.10;99.90;;;;;;5076255;28;20231;-63
2022/12/14 01:41:05;;;;;;;27.07;19.80;;;0.20;99.90;;;;;;5076133;28;20171;-63
2022/12/14 01:44:23;;;;;;;29.33;19.87;;;0.10;99.90;;;;;;5074822;28;20186;-63
2022/12/14 01:46:58;;;;;;;23.27;16.43;;;0.00;99.90;;;;;;5040395;28;20227;-63
2022/12/14 01:49:30;;;;;;;26.90;18.50;;;0.00;99.90;;;;;;5076017;28;20232;-63
2022/12/14 01:52:15;;;;;;;21.37;14.20;;;-0.10;99.90;;;;;;5075812;28;20223;-63
2022/12/14 01:54:47;;;;;;;22.97;17.00;;;-0.10;99.90;;;;;;5076142;28;20262;-62
2022/12/14 01:57:19;;;;;;;25.90;16.37;;;-0.20;99.90;;;;;;5075817;28;20206;-62
2022/12/14 01:59:47;;;;;;;29.17;19.43;;;-0.20;99.90;;;;;;5075919;28;20171;-63
2022/12/14 02:02:14;;;;;;;21.33;14.23;;;-0.10;99.90;;;;;;5074517;28;20181;-62
2022/12/14 02:04:56;;;;;;;21.47;14.40;;;-0.20;99.90;;;;;;5075359;28;20185;-62
2022/12/14 02:07:23;;;;;;;21.53;15.20;;;-0.20;99.90;;;;;;5075727;28;20199;-63
2022/12/14 02:09:50;;;;;;;26.73;17.53;;;-0.10;99.90;;;;;;5075635;28;20701;-62
2022/12/14 02:12:21;;;;;;;19.53;13.60;;;0.00;99.90;;;;;;5075595;28;20252;-62
2022/12/14 02:14:47;;;;;;;22.00;15.77;;;0.10;99.90;;;;;;5075530;28;20170;-63
2022/12/14 02:17:14;;;;;;;20.70;15.33;;;0.10;99.90;;;;;;5074069;28;20183;-63
2022/12/14 02:19:48;;;;;;;22.17;13.97;;;0.20;99.90;;;;;;5075511;28;20187;-62
2022/12/14 02:22:22;;;;;;;21.33;13.47;;;0.20;99.90;;;;;;5075520;28;20286;-63
2022/12/14 02:25:06;;;;;;;21.67;13.50;;;0.20;99.90;;;;;;5075561;28;20265;-62
2022/12/14 02:28:09;;;;;;;19.50;12.90;;;0.20;99.90;;;;;;5075277;28;20272;-62
2022/12/14 02:30:41;;;;;;;20.63;12.80;;;0.40;99.90;;;;;;5075114;28;20171;-62
2022/12/14 02:33:33;;;;;;;21.33;13.43;;;0.40;99.90;;;;;;5075107;28;20193;-63
2022/12/14 02:36:19;;;;;;;17.97;12.43;;;0.30;99.90;;;;;;5075271;28;20624;-62
2022/12/14 02:39:09;;;;;;;18.53;12.53;;;0.30;99.90;;;;;;5075001;28;20179;-62
2022/12/14 02:41:53;;;;;;;17.10;11.77;;;0.20;99.90;;;;;;5074892;28;20177;-63
2022/12/14 02:44:38;;;;;;;17.77;12.23;;;0.20;99.90;;;;;;5074842;28;20206;-62
2022/12/14 02:47:29;;;;;;;20.93;12.47;;;0.20;99.90;;;;;;5074897;28;20674;-62
2022/12/14 02:50:09;;;;;;;20.57;13.27;;;0.20;99.90;;;;;;5074794;28;20642;-64
2022/12/14 02:52:50;;;;;;;21.20;12.67;;;0.20;99.90;;;;;;5074645;28;20170;-63
2022/12/14 02:55:25;;;;;;;15.50;11.43;;;0.30;99.90;;;;;;5074816;28;20208;-62
2022/12/14 02:58:12;;;;;;;20.53;12.73;;;0.30;99.90;;;;;;5074530;28;20505;-62
2022/12/14 03:00:38;;;;;;;19.40;12.37;;;0.10;99.90;;;;;;5074571;28;20163;-62
2022/12/14 03:03:05;;;;;;;25.87;17.30;;;0.00;99.90;;;;;;5074418;28;20220;-62
2022/12/14 03:05:31;;;;;;;25.60;17.43;;;-0.20;99.90;;;;;;5074532;28;20197;-62
2022/12/14 03:08:01;;;;;;;18.93;13.33;;;-0.40;99.90;;;;;;5074526;28;20183;-62
2022/12/14 03:10:52;;;;;;;40.53;28.30;;;-0.50;99.90;;;;;;5074394;28;20186;-63
2022/12/14 03:13:28;;;;;;;31.33;21.50;;;-0.60;99.90;;;;;;5074292;28;20240;-62
2022/12/14 03:16:02;;;;;;;22.07;15.13;;;-0.60;99.90;;;;;;5074532;28;20174;-62
2022/12/14 03:18:34;;;;;;;28.83;19.20;;;-0.30;99.90;;;;;;5074343;28;20177;-61
2022/12/14 03:21:01;;;;;;;30.87;21.87;;;-0.40;99.90;;;;;;5074290;28;20511;-63
2022/12/14 03:23:33;;;;;;;20.97;14.70;;;-0.30;99.90;;;;;;5073880;28;20177;-62
2022/12/14 03:26:10;;;;;;;24.83;17.20;;;-0.40;99.90;;;;;;5074333;28;20244;-63
2022/12/14 03:28:53;;;;;;;18.00;13.03;;;-0.40;99.90;;;;;;5074132;28;20163;-63
2022/12/14 03:31:29;;;;;;;20.87;14.30;;;-0.40;99.90;;;;;;5074210;28;20640;-62
2022/12/14 03:33:57;;;;;;;18.27;13.10;;;-0.40;99.90;;;;;;5074068;28;20258;-63
2022/12/14 03:36:41;;;;;;;25.60;15.73;;;-0.40;99.90;;;;;;5073787;28;20181;-63
2022/12/14 03:39:11;;;;;;;24.07;15.57;;;-0.60;99.90;;;;;;5074243;28;20171;-63
2022/12/14 03:41:41;;;;;;;24.37;16.63;;;-0.70;99.90;;;;;;5073931;28;20167;-63
2022/12/14 03:44:13;;;;;;;22.63;13.97;;;-0.70;99.90;;;;;;5073897;28;20547;-62
2022/12/14 03:47:06;;;;;;;22.73;15.83;;;-0.80;99.90;;;;;;5073461;28;20211;-63
2022/12/14 03:49:46;;;;;;;25.93;16.40;;;-0.70;99.90;;;;;;5073826;28;20174;-62
2022/12/14 03:52:19;;;;;;;22.37;15.33;;;-0.70;99.90;;;;;;5071961;28;20175;-62
2022/12/14 03:55:02;;;;;;;30.07;18.37;;;-0.80;99.90;;;;;;5073782;28;20183;-62
2022/12/14 03:57:37;;;;;;;51.80;30.80;;;-0.80;99.90;;;;;;5073615;28;20699;-62
2022/12/14 04:00:09;;;;;;;80.10;45.83;;;-0.90;99.90;;;;;;5073659;28;20754;-62
2022/12/14 04:02:46;;;;;;;44.97;25.63;;;-0.90;99.90;;;;;;5073357;28;20185;-62
2022/12/14 04:05:25;;;;;;;71.37;51.23;;;-0.90;99.90;;;;;;5073588;28;20252;-62
2022/12/14 04:08:15;;;;;;;113.63;68.50;;;-0.70;99.90;;;;;;5073578;28;20187;-63
2022/12/14 04:19:28;;;;;;;28.10;23.53;;;-1.00;99.90;;;;;;5073457;28;20256;-62
2022/12/14 04:22:05;;;;;;;21.73;16.03;;;-1.10;99.90;;;;;;5073307;28;20198;-63
2022/12/14 04:27:52;;;;;;;21.67;13.97;;;-1.00;99.90;;;;;;5073436;28;20190;-63
2022/12/14 04:30:18;;;;;;;20.67;13.70;;;-0.90;99.90;;;;;;5073103;28;20174;-62
2022/12/14 04:32:55;;;;;;;17.93;12.80;;;-1.10;99.90;;;;;;5073066;28;20265;-62
2022/12/14 04:35:32;;;;;;;17.07;11.47;;;-1.10;99.90;;;;;;5073241;28;20533;-62
2022/12/14 04:38:16;;;;;;;19.23;13.07;;;-1.30;99.90;;;;;;5073285;28;20239;-62
2022/12/14 04:40:47;;;;;;;17.53;12.60;;;-1.20;99.90;;;;;;5071819;28;20171;-62
2022/12/14 04:43:16;;;;;;;18.87;13.50;;;-1.20;99.90;;;;;;5073064;28;20202;-63
2022/12/14 04:46:13;;;;;;;19.70;11.67;;;-1.20;99.90;;;;;;5073314;28;20206;-62
2022/12/14 04:49:00;;;;;;;21.13;13.10;;;-1.00;99.90;;;;;;5073035;28;20561;-63
2022/12/14 04:52:03;;;;;;;19.77;11.70;;;-0.90;99.90;;;;;;5072838;28;20246;-63
2022/12/14 04:54:36;;;;;;;18.90;12.70;;;-0.90;99.90;;;;;;5072980;28;20181;-62
2022/12/14 04:57:07;;;;;;;18.13;12.07;;;-0.90;99.90;;;;;;5072959;28;20189;-62
2022/12/14 04:59:33;;;;;;;21.17;12.80;;;-0.60;99.90;;;;;;5072812;28;20630;-62
2022/12/14 05:02:08;;;;;;;19.40;13.10;;;-0.40;99.90;;;;;;5072796;28;20545;-63
2022/12/14 05:05:18;;;;;;;16.97;12.10;;;-0.60;99.90;;;;;;5076548;28;20175;-63
2022/12/14 05:08:08;;;;;;;17.37;12.53;;;-0.50;99.90;;;;;;5047927;28;20203;-62
2022/12/14 05:10:41;;;;;;;17.80;12.30;;;-0.50;99.90;;;;;;5076662;28;20604;-63
2022/12/14 05:13:16;;;;;;;20.07;12.93;;;-0.40;99.90;;;;;;5076669;28;20168;-62
2022/12/14 05:15:47;;;;;;;19.33;13.00;;;-0.20;99.90;;;;;;5076720;28;20173;-62
2022/12/14 05:18:13;;;;;;;22.87;14.80;;;-0.10;99.90;;;;;;5075326;28;20171;-62
2022/12/14 05:20:39;;;;;;;18.10;12.80;;;-0.30;99.90;;;;;;5076367;28;20186;-63
2022/12/14 05:23:05;;;;;;;19.43;13.30;;;-0.50;99.90;;;;;;5076603;28;20180;-62
2022/12/14 05:25:30;;;;;;;16.73;11.93;;;-0.40;99.90;;;;;;5074765;28;20190;-62
2022/12/14 05:27:56;;;;;;;20.67;13.57;;;-0.50;99.90;;;;;;5076379;28;20232;-62
2022/12/14 05:30:22;;;;;;;17.93;12.50;;;-0.50;99.90;;;;;;5075973;28;20175;-62
2022/12/14 05:32:47;;;;;;;18.07;12.37;;;-0.40;99.90;;;;;;5075287;28;20232;-63
2022/12/14 05:35:13;;;;;;;18.60;13.20;;;-0.50;99.90;;;;;;5076012;28;20258;-63
2022/12/14 05:37:42;;;;;;;21.67;14.20;;;-0.30;99.90;;;;;;5076195;28;20205;-63
2022/12/14 05:40:09;;;;;;;47.07;28.60;;;-0.10;99.90;;;;;;5075545;28;20185;-62
2022/12/14 05:42:34;;;;;;;83.27;47.30;;;-0.20;99.90;;;;;;5076077;28;20229;-62
2022/12/14 05:45:00;;;;;;;27.30;17.63;;;-0.10;99.90;;;;;;5075147;28;20171;-63
2022/12/14 05:47:26;;;;;;;33.70;22.17;;;-0.20;99.90;;;;;;5075862;28;20293;-60
2022/12/14 05:49:52;;;;;;;21.00;12.37;;;-0.30;99.90;;;;;;5075865;28;20186;-62
2022/12/14 05:52:18;;;;;;;17.23;12.17;;;-0.50;99.90;;;;;;5076334;28;20231;-62
2022/12/14 05:54:44;;;;;;;16.97;12.23;;;-0.40;99.90;;;;;;5075863;28;20179;-62
2022/12/14 05:57:10;;;;;;;16.77;11.67;;;-0.60;99.90;;;;;;5075818;28;20258;-63
2022/12/14 05:59:35;;;;;;;18.10;12.07;;;-0.50;99.90;;;;;;5073563;28;20227;-63
2022/12/14 06:02:01;;;;;;;16.83;11.87;;;-0.40;99.90;;;;;;5075454;28;20186;-64
2022/12/14 06:04:27;;;;;;;22.97;12.37;;;-0.30;99.90;;;;;;5075436;28;20631;-62
2022/12/14 06:06:52;;;;;;;16.40;12.07;;;-0.30;99.90;;;;;;5075824;28;20491;-62
2022/12/14 06:09:18;;;;;;;18.07;12.30;;;-0.40;99.90;;;;;;5075833;28;20210;-62
2022/12/14 06:11:45;;;;;;;16.83;11.30;;;-0.50;99.90;;;;;;5075623;28;20228;-62
2022/12/14 06:14:15;;;;;;;17.07;12.30;;;-0.50;99.90;;;;;;5075135;28;20260;-63
2022/12/14 06:16:43;;;;;;;18.97;12.20;;;-0.50;99.90;;;;;;5075346;28;20214;-62
2022/12/14 06:19:10;;;;;;;19.93;11.87;;;-0.40;99.90;;;;;;5075590;28;20178;-63
2022/12/14 06:21:37;;;;;;;20.10;12.57;;;-0.30;99.90;;;;;;5075488;28;20184;-63
2022/12/14 06:24:04;;;;;;;19.20;12.87;;;-0.20;99.90;;;;;;5075393;28;20205;-62
2022/12/14 06:26:31;;;;;;;25.17;12.33;;;-0.40;99.90;;;;;;5075315;28;20202;-63
2022/12/14 06:28:58;;;;;;;18.90;12.57;;;-0.40;99.90;;;;;;5075300;28;20175;-63
2022/12/14 06:31:26;;;;;;;19.53;13.33;;;-0.50;99.90;;;;;;5075109;28;20182;-63
2022/12/14 06:33:53;;;;;;;19.03;12.63;;;-0.60;99.90;;;;;;5075025;28;20533;-62
2022/12/14 06:36:25;;;;;;;20.63;12.73;;;-0.70;99.90;;;;;;5075172;28;20191;-63
2022/12/14 06:38:52;;;;;;;20.97;13.10;;;-0.40;99.90;;;;;;5075087;28;20174;-63
2022/12/14 06:41:19;;;;;;;19.23;12.93;;;-0.30;99.90;;;;;;5075096;28;20174;-63
2022/12/14 06:43:45;;;;;;;18.23;12.80;;;-0.30;99.90;;;;;;5074913;28;20625;-63
2022/12/14 06:46:16;;;;;;;20.33;13.43;;;-0.50;99.90;;;;;;5074987;28;20268;-63
2022/12/14 06:48:42;;;;;;;18.83;12.40;;;-0.40;99.90;;;;;;5075024;28;20171;-63
2022/12/14 06:51:07;;;;;;;24.63;14.27;;;-0.30;99.90;;;;;;5074845;28;20650;-64
2022/12/14 06:53:34;;;;;;;21.00;14.00;;;-0.20;99.90;;;;;;5074620;28;20179;-63
2022/12/14 06:56:07;;;;;;;20.50;13.67;;;-0.40;99.90;;;;;;5074842;28;20179;-63
2022/12/14 06:58:32;;;;;;;21.00;14.50;;;-0.30;99.90;;;;;;5074573;28;20201;-64
2022/12/14 07:01:07;;;;;;;18.63;13.30;;;-0.20;99.90;;;;;;5074798;28;20207;-63
2022/12/14 07:03:32;;;;;;;20.10;14.00;;;-0.10;99.90;;;;;;5074539;28;20178;-63
2022/12/14 07:05:59;;;;;;;23.60;14.87;;;-0.40;99.90;;;;;;5074529;28;20684;-63
2022/12/14 07:08:27;;;;;;;26.73;16.47;;;-0.40;99.90;;;;;;5074512;28;20498;-63
2022/12/14 07:10:53;;;;;;;34.60;24.00;;;-0.20;99.90;;;;;;5074317;28;20182;-64
2022/12/14 07:13:22;;;;;;;31.53;22.47;;;-0.20;99.90;;;;;;5074465;28;20179;-63
2022/12/14 07:15:52;;;;;;;24.47;17.53;;;-0.30;99.90;;;;;;5074415;28;20187;-63
2022/12/14 07:18:19;;;;;;;22.90;16.10;;;-0.50;99.90;;;;;;5074312;28;20174;-62
2022/12/14 07:20:54;;;;;;;22.90;14.63;;;-0.50;99.90;;;;;;5074269;28;20183;-63
2022/12/14 07:23:24;;;;;;;21.80;14.83;;;-0.40;99.90;;;;;;5074042;28;20177;-63
2022/12/14 07:25:50;;;;;;;22.40;13.30;;;-0.60;99.90;;;;;;5073572;28;20224;-63
2022/12/14 07:28:16;;;;;;;20.87;13.30;;;-0.90;99.90;;;;;;5074191;28;20175;-62
2022/12/14 07:30:41;;;;;;;20.60;13.57;;;-0.90;99.90;;;;;;5074076;28;20236;-63
2022/12/14 07:33:07;;;;;;;20.03;13.73;;;-0.50;99.90;;;;;;5074309;28;20574;-63
2022/12/14 07:35:32;;;;;;;20.23;14.00;;;-0.30;99.90;;;;;;5072747;28;20186;-64
2022/12/14 07:37:58;;;;;;;23.80;13.50;;;-0.50;99.90;;;;;;5074222;28;20175;-63
2022/12/14 07:40:24;;;;;;;23.40;13.97;;;-0.80;99.90;;;;;;5073962;28;20189;-63
2022/12/14 07:42:49;;;;;;;30.50;21.67;;;-0.80;99.90;;;;;;5074517;28;20175;-64
2022/12/14 07:45:15;;;;;;;21.40;15.37;;;-0.80;99.90;;;;;;5074455;28;20224;-63
2022/12/14 07:47:41;;;;;;;19.73;13.13;;;-0.80;99.90;;;;;;5074164;28;20618;-63
2022/12/14 07:50:07;;;;;;;25.10;14.33;;;-0.80;99.90;;;;;;5074030;28;20164;-63
2022/12/14 07:52:33;;;;;;;22.83;15.20;;;-0.70;99.90;;;;;;5073589;28;20175;-63
2022/12/14 07:54:59;;;;;;;25.03;16.53;;;-0.50;99.90;;;;;;5072662;28;20182;-63
2022/12/14 07:57:24;;;;;;;24.93;16.70;;;-0.60;99.90;;;;;;5073619;28;20187;-63
2022/12/14 07:59:50;;;;;;;28.33;15.27;;;-0.80;99.90;;;;;;5073588;28;20182;-64
2022/12/14 08:02:16;;;;;;;23.93;15.33;;;-0.80;99.90;;;;;;5073579;28;20172;-62
2022/12/14 08:04:41;;;;;;;23.10;15.67;;;-0.80;99.90;;;;;;5073546;28;20170;-62
2022/12/14 08:07:07;;;;;;;25.90;15.80;;;-0.60;99.90;;;;;;5073793;28;20202;-63
2022/12/14 08:09:33;;;;;;;26.00;16.40;;;-0.60;99.90;;;;;;5073569;28;20182;-63
2022/12/14 08:11:58;;;;;;;24.47;16.53;;;-0.50;99.90;;;;;;5073307;28;20220;-63
2022/12/14 08:14:24;;;;;;;23.60;16.47;;;-0.50;99.90;;;;;;5073570;28;20232;-63
2022/12/14 08:16:50;;;;;;;24.63;16.17;;;-0.40;99.90;;;;;;5072184;28;20179;-63
2022/12/14 08:19:17;;;;;;;24.50;15.77;;;-0.40;99.90;;;;;;5073272;28;20286;-62
2022/12/14 08:21:44;;;;;;;28.83;16.73;;;-0.40;99.90;;;;;;5073123;28;20266;-63
2022/12/14 08:24:11;;;;;;;26.33;16.67;;;-0.40;99.90;;;;;;5073268;28;20190;-63
2022/12/14 08:26:37;;;;;;;22.90;15.67;;;-0.40;99.90;;;;;;5073307;28;20568;-63
2022/12/14 08:29:03;;;;;;;25.57;16.47;;;-0.40;99.90;;;;;;5073314;28;20179;-63
2022/12/14 08:31:30;;;;;;;24.23;15.90;;;-0.50;99.90;;;;;;5073170;28;20175;-62
2022/12/14 08:33:57;;;;;;;25.50;16.27;;;-0.60;99.90;;;;;;5073136;28;20171;-63
2022/12/14 08:36:29;;;;;;;25.80;15.70;;;-1.00;99.90;;;;;;5072775;28;20183;-63
2022/12/14 08:38:57;;;;;;;21.27;14.83;;;-0.80;99.90;;;;;;5073207;28;20170;-63
2022/12/14 08:41:24;;;;;;;24.63;16.47;;;-0.80;99.90;;;;;;5073214;28;20379;-64
2022/12/14 08:43:51;;;;;;;25.83;16.50;;;-0.80;99.90;;;;;;5073030;28;20601;-63
2022/12/14 08:46:18;;;;;;;23.60;15.97;;;-0.90;99.90;;;;;;5073020;28;20285;-62
2022/12/14 08:48:43;;;;;;;28.20;16.13;;;-0.70;99.90;;;;;;5072916;28;20179;-63
2022/12/14 08:51:09;;;;;;;24.30;15.93;;;-0.60;99.90;;;;;;5073152;28;20185;-63
2022/12/14 08:53:36;;;;;;;23.50;16.00;;;-0.70;99.90;;;;;;5073031;28;20178;-63
2022/12/14 08:56:08;;;;;;;24.83;16.63;;;-0.80;99.90;;;;;;5072878;28;20186;-63
2022/12/14 08:58:34;;;;;;;21.17;15.93;;;-0.90;99.90;;;;;;5071688;28;20534;-63
2022/12/14 09:01:05;;;;;;;23.43;15.50;;;-1.00;99.90;;;;;;5072864;28;20185;-63
2022/12/14 09:03:31;;;;;;;25.80;16.93;;;-1.00;99.90;;;;;;5072810;28;20167;-63
2022/12/14 09:06:04;;;;;;;23.83;16.60;;;-1.00;99.90;;;;;;5072974;28;20305;-63
2022/12/14 09:08:30;;;;;;;26.73;16.93;;;-1.00;99.90;;;;;;5073052;28;20191;-62
2022/12/14 09:10:56;;;;;;;28.70;18.17;;;-1.00;99.90;;;;;;5072766;28;20253;-63
2022/12/14 09:13:21;;;;;;;25.67;16.63;;;-1.00;99.90;;;;;;5072872;28;20178;-63
2022/12/14 09:16:01;;;;;;;25.07;15.37;;;-0.90;99.90;;;;;;5072649;28;20180;-62
2022/12/14 09:18:27;;;;;;;26.50;15.73;;;-1.00;99.90;;;;;;5072678;28;20174;-63
2022/12/14 09:20:54;;;;;;;24.87;15.90;;;-1.00;99.90;;;;;;5072830;28;20175;-63
2022/12/14 09:23:22;;;;;;;27.03;15.60;;;-0.90;99.90;;;;;;5072598;28;20180;-63
2022/12/14 09:26:05;;;;;;;24.13;16.17;;;-0.70;99.90;;;;;;5072348;28;20737;-62
2022/12/14 09:28:34;;;;;;;23.47;14.83;;;-0.70;99.90;;;;;;5072560;28;20262;-63
2022/12/14 09:31:02;;;;;;;24.93;15.40;;;-0.80;99.90;;;;;;5072636;28;20229;-63
2022/12/14 09:33:29;;;;;;;24.43;15.37;;;-0.70;99.90;;;;;;5072682;28;20175;-63
2022/12/14 09:36:11;;;;;;;25.77;16.27;;;-0.60;99.90;;;;;;5072615;28;20182;-63
2022/12/14 09:38:38;;;;;;;23.60;15.67;;;-0.80;99.90;;;;;;5072532;28;20197;-63
2022/12/14 09:41:06;;;;;;;23.10;15.57;;;-0.80;99.90;;;;;;5072451;28;20524;-61
2022/12/14 09:43:42;;;;;;;22.47;15.50;;;-0.80;99.90;;;;;;5072570;28;20611;-63
2022/12/14 09:46:32;;;;;;;24.90;18.03;;;-0.60;99.90;;;;;;5071292;28;20207;-63
2022/12/14 09:49:00;;;;;;;24.17;16.77;;;-0.60;99.90;;;;;;5073222;28;20175;-63
2022/12/14 09:51:35;;;;;;;22.80;15.80;;;-0.50;99.90;;;;;;5075873;28;20258;-63
2022/12/14 09:54:14;;;;;;;25.47;16.33;;;-0.40;99.90;;;;;;5076021;28;20182;-63
2022/12/14 09:56:40;;;;;;;26.03;17.20;;;-0.50;99.90;;;;;;5076052;28;20223;-61
2022/12/14 09:59:13;;;;;;;26.87;17.97;;;-0.40;99.90;;;;;;5075935;28;20716;-63
2022/12/14 10:01:45;;;;;;;29.40;18.30;;;-0.20;99.90;;;;;;5075795;28;20199;-62
2022/12/14 10:04:24;;;;;;;28.63;17.83;;;-0.30;99.90;;;;;;5075911;28;20197;-63
2022/12/14 10:07:02;;;;;;;27.13;17.70;;;-0.10;99.90;;;;;;5075780;28;20241;-63
2022/12/14 10:09:54;;;;;;;31.07;16.87;;;-0.20;99.90;;;;;;5075718;28;20198;-62
2022/12/14 10:12:31;;;;;;;52.73;32.67;;;-0.20;99.90;;;;;;5075546;28;20170;-63
2022/12/14 10:15:26;;;;;;;35.73;21.23;;;0.00;99.90;;;;;;5075709;28;20316;-63
2022/12/14 10:18:17;;;;;;;29.23;17.77;;;0.00;99.90;;;;;;5075604;28;20175;-61
2022/12/14 10:20:58;;;;;;;28.33;17.80;;;0.10;99.90;;;;;;5075687;28;20265;-63
2022/12/14 10:23:25;;;;;;;24.07;15.80;;;0.20;99.90;;;;;;5074279;28;20171;-63
2022/12/14 10:25:55;;;;;;;25.07;16.63;;;0.20;99.90;;;;;;5075389;28;20218;-63
2022/12/14 10:28:43;;;;;;;25.60;16.97;;;0.30;99.90;;;;;;5075299;28;20167;-63
2022/12/14 10:31:17;;;;;;;27.13;16.50;;;0.20;99.90;;;;;;5075084;28;20502;-63
2022/12/14 10:33:45;;;;;;;26.97;17.70;;;0.20;99.90;;;;;;5075370;28;20230;-62
2022/12/14 10:36:18;;;;;;;27.23;16.47;;;0.20;99.90;;;;;;5075205;28;20185;-63
2022/12/14 10:38:55;;;;;;;24.53;16.83;;;0.30;99.90;;;;;;5075109;28;20177;-62
2022/12/14 10:41:35;;;;;;;26.43;18.00;;;0.30;99.90;;;;;;5074982;28;20644;-62
2022/12/14 10:44:42;;;;;;;27.73;16.80;;;0.20;99.90;;;;;;5075114;28;20256;-63
2022/12/14 10:47:32;;;;;;;27.63;18.37;;;0.30;99.90;;;;;;5074950;28;20204;-63
2022/12/14 10:50:34;;;;;;;40.30;33.00;;;0.10;99.90;;;;;;5074918;28;20177;-63
2022/12/14 10:53:03;;;;;;;26.63;18.30;;;0.00;99.90;;;;;;5029895;28;20655;-63
2022/12/14 10:55:32;;;;;;;28.20;19.03;;;0.30;99.90;;;;;;5074609;28;20269;-61
2022/12/14 10:57:59;;;;;;;27.30;17.27;;;0.60;99.90;;;;;;5074678;28;20171;-62
2022/12/14 11:00:25;;;;;;;26.93;17.73;;;0.70;99.90;;;;;;5073666;28;20174;-62
2022/12/14 11:02:55;;;;;;;26.10;18.07;;;0.80;99.90;;;;;;5074760;28;20175;-63
2022/12/14 11:05:34;;;;;;;23.87;14.70;;;0.80;99.90;;;;;;5073324;28;20206;-63
2022/12/14 11:08:00;;;;;;;31.70;22.03;;;0.50;99.90;;;;;;5074483;28;20189;-63
2022/12/14 11:10:29;;;;;;;19.87;14.10;;;0.50;99.90;;;;;;5074373;28;20228;-62
2022/12/14 11:12:59;;;;;;;23.90;14.83;;;0.40;99.90;;;;;;5074509;28;20185;-64
2022/12/14 11:15:27;;;;;;;21.30;14.23;;;0.60;99.90;;;;;;5074440;28;20176;-62
2022/12/14 11:18:18;;;;;;;22.40;15.07;;;0.60;99.90;;;;;;5074365;28;20631;-61
2022/12/14 11:20:55;;;;;;;21.13;14.70;;;0.80;99.90;;;;;;5074239;28;20190;-64
2022/12/14 11:23:35;;;;;;;18.50;13.67;;;0.80;99.90;;;;;;5074388;28;20182;-61
2022/12/14 11:26:11;;;;;;;21.27;14.70;;;0.60;99.90;;;;;;5074315;28;20248;-64
2022/12/14 11:28:58;;;;;;;20.77;14.47;;;0.80;99.90;;;;;;5074089;28;20185;-64
2022/12/14 11:31:39;;;;;;;20.67;13.80;;;0.90;99.90;;;;;;5073768;28;20182;-63
2022/12/14 11:34:18;;;;;;;22.77;14.97;;;0.80;99.90;;;;;;5074200;28;20174;-62
2022/12/14 11:36:44;;;;;;;20.00;13.53;;;0.80;99.90;;;;;;5074070;28;20233;-63
2022/12/14 11:39:16;;;;;;;18.47;12.93;;;0.70;99.90;;;;;;5074009;28;20179;-63
2022/12/14 11:42:03;;;;;;;19.23;12.93;;;0.70;99.90;;;;;;5073974;28;20536;-61
2022/12/14 11:44:35;;;;;;;20.47;14.27;;;0.70;99.90;;;;;;5073948;28;20653;-62
2022/12/14 11:47:12;;;;;;;23.53;15.03;;;0.50;99.90;;;;;;5073825;28;20682;-61
2022/12/14 11:49:41;;;;;;;17.87;12.30;;;0.50;99.90;;;;;;5073748;28;20223;-63
2022/12/14 11:52:22;;;;;;;19.53;14.37;;;0.50;99.90;;;;;;5073533;28;20181;-62
2022/12/14 11:55:13;;;;;;;19.43;13.70;;;0.70;99.90;;;;;;5073636;28;20180;-63
2022/12/14 11:57:53;;;;;;;19.57;12.97;;;0.80;99.90;;;;;;5073679;28;20219;-62
2022/12/14 12:00:19;;;;;;;15.27;11.53;;;0.90;99.90;;;;;;5073548;28;20274;-62
2022/12/14 12:03:12;;;;;;;17.53;11.97;;;0.80;99.90;;;;;;5073356;28;20698;-60
2022/12/14 12:05:40;;;;;;;17.70;11.20;;;0.60;99.90;;;;;;5072252;28;20247;-61
2022/12/14 12:08:20;;;;;;;19.70;12.10;;;0.60;99.90;;;;;;5073440;28;20186;-62
2022/12/14 12:10:49;;;;;;;16.53;11.63;;;0.60;99.90;;;;;;5073434;28;20176;-61
2022/12/14 12:13:20;;;;;;;17.20;12.03;;;0.50;99.90;;;;;;5073128;28;20210;-62
2022/12/14 12:15:51;;;;;;;18.67;11.80;;;0.60;99.90;;;;;;5073426;28;20182;-62
2022/12/14 12:18:26;;;;;;;18.00;13.13;;;0.60;99.90;;;;;;5073074;28;20259;-62
2022/12/14 12:21:16;;;;;;;21.53;12.13;;;0.70;99.90;;;;;;5073293;28;20171;-62
2022/12/14 12:24:15;;;;;;;18.13;12.00;;;0.80;99.90;;;;;;5072134;28;20175;-61
2022/12/14 12:26:56;;;;;;;31.90;19.20;;;0.80;99.90;;;;;;5073239;28;20213;-61
2022/12/14 12:29:45;;;;;;;15.77;11.57;;;1.00;99.90;;;;;;5073275;28;20695;-61
2022/12/14 12:32:29;;;;;;;32.80;19.77;;;1.20;99.90;;;;;;5073319;28;20238;-62
2022/12/14 12:35:00;;;;;;;30.23;20.27;;;1.10;99.90;;;;;;5073228;28;20181;-61
2022/12/14 12:38:01;;;;;;;26.73;18.50;;;1.10;99.90;;;;;;5073180;28;20217;-62
2022/12/14 12:40:51;;;;;;;17.10;12.53;;;1.30;99.90;;;;;;5073281;28;20174;-61
2022/12/14 12:43:42;;;;;;;16.97;11.77;;;1.50;99.90;;;;;;5072882;28;20182;-63
2022/12/14 12:46:15;;;;;;;16.27;11.43;;;1.40;99.90;;;;;;5073064;28;20278;-62
2022/12/14 12:48:59;;;;;;;18.97;11.97;;;1.40;99.90;;;;;;5073098;28;20243;-61
2022/12/14 12:51:29;;;;;;;18.23;12.40;;;1.10;99.90;;;;;;5073026;28;20538;-62
2022/12/14 12:54:01;;;;;;;17.00;12.10;;;1.00;99.90;;;;;;5073035;28;20261;-62
2022/12/14 12:56:45;;;;;;;15.80;11.53;;;1.30;99.90;;;;;;5072895;28;20601;-61
2022/12/14 12:59:33;;;;;;;20.17;11.67;;;1.10;99.90;;;;;;5073185;28;20264;-61
2022/12/14 13:02:31;;;;;;;20.77;14.40;;;1.10;99.90;;;;;;5073027;28;20181;-61
2022/12/14 13:05:06;;;;;;;14.37;10.50;;;0.90;99.90;;;;;;5072253;28;20661;-61
2022/12/14 13:07:37;;;;;;;17.70;12.83;;;0.90;99.90;;;;;;5072720;28;20309;-61
2022/12/14 13:10:26;;;;;;;14.80;10.63;;;0.80;99.90;;;;;;5072946;28;20182;-62
2022/12/14 13:13:00;;;;;;;13.97;10.37;;;0.60;99.90;;;;;;5072298;28;20190;-61